createdAt,value
2019-04-03T00:02:10.516Z,15.48
2019-04-03T00:04:42.084Z,15.51
2019-04-03T00:07:13.757Z,15.51
2019-04-03T00:09:45.394Z,15.46
2019-04-03T00:12:16.997Z,15.44
2019-04-03T00:14:48.554Z,15.40
2019-04-03T00:17:20.189Z,15.39
2019-04-03T00:19:51.786Z,15.38
2019-04-03T00:22:23.363Z,15.34
2019-04-03T00:24:54.943Z,15.31
2019-04-03T00:27:26.554Z,15.26
2019-04-03T00:29:58.189Z,15.22
2019-04-03T00:32:29.745Z,15.20
2019-04-03T00:35:01.329Z,15.17
2019-04-03T00:37:33.024Z,15.19
2019-04-03T00:40:05.044Z,15.18
2019-04-03T00:42:36.628Z,15.19
2019-04-03T00:45:09.438Z,15.16
2019-04-03T00:47:41.053Z,15.10
2019-04-03T00:50:12.608Z,15.06
2019-04-03T00:52:44.311Z,14.99
2019-04-03T00:55:15.854Z,14.96
2019-04-03T00:57:47.493Z,14.92
2019-04-03T01:00:19.174Z,14.84
2019-04-03T01:02:50.826Z,14.76
2019-04-03T01:05:22.422Z,14.70
2019-04-03T01:07:54.153Z,14.73
2019-04-03T01:10:25.700Z,14.77
2019-04-03T01:12:57.284Z,14.78
2019-04-03T01:15:29.787Z,14.79
2019-04-03T01:18:04.634Z,14.74
2019-04-03T01:20:36.723Z,14.69
2019-04-03T01:23:08.336Z,14.52
2019-04-03T01:25:40.178Z,14.50
2019-04-03T01:28:12.002Z,14.52
2019-04-03T01:30:44.249Z,14.55
2019-04-03T01:33:16.716Z,14.55
2019-04-03T01:35:48.859Z,14.58
2019-04-03T01:38:20.431Z,14.53
2019-04-03T01:40:52.015Z,14.54
2019-04-03T01:43:23.778Z,14.52
2019-04-03T01:45:56.981Z,14.53
2019-04-03T01:48:28.926Z,14.52
2019-04-03T01:51:00.531Z,14.44
2019-04-03T01:53:32.761Z,14.27
2019-04-03T01:56:05.288Z,14.19
2019-04-03T01:58:36.984Z,14.18
2019-04-03T02:01:08.650Z,14.15
2019-04-03T02:03:41.691Z,14.11
2019-04-03T02:06:14.137Z,13.89
2019-04-03T02:08:45.705Z,13.90
2019-04-03T02:11:18.626Z,13.90
2019-04-03T02:13:51.351Z,13.94
2019-04-03T02:16:23.624Z,13.99
2019-04-03T02:18:55.971Z,14.02
2019-04-03T02:21:28.301Z,14.09
2019-04-03T02:24:01.255Z,14.13
2019-04-03T02:26:33.413Z,14.18
2019-04-03T02:29:06.644Z,14.21
2019-04-03T02:31:38.566Z,14.17
2019-04-03T02:34:10.106Z,14.16
2019-04-03T02:36:44.418Z,14.14
2019-04-03T02:39:14.952Z,14.10
2019-04-03T02:41:46.525Z,14.05
2019-04-03T02:44:19.802Z,13.92
2019-04-03T02:46:51.353Z,13.87
2019-04-03T02:49:23.014Z,13.74
2019-04-03T02:51:54.873Z,13.69
2019-04-03T02:54:34.828Z,13.66
2019-04-03T02:57:04.925Z,13.62
2019-04-03T02:59:36.565Z,13.59
2019-04-03T03:02:11.285Z,13.55
2019-04-03T03:04:41.690Z,13.57
2019-04-03T03:07:13.379Z,13.59
2019-04-03T03:09:47.569Z,13.57
2019-04-03T03:12:19.455Z,13.54
2019-04-03T03:14:51.441Z,13.54
2019-04-03T03:17:24.179Z,13.54
2019-04-03T03:19:57.034Z,13.50
2019-04-03T03:22:29.155Z,13.47
2019-04-03T03:25:01.353Z,13.44
2019-04-03T03:27:33.837Z,13.43
2019-04-03T03:30:28.961Z,13.34
2019-04-03T03:32:40.196Z,13.30
2019-04-03T03:35:16.600Z,13.32
2019-04-03T03:37:47.112Z,13.32
2019-04-03T03:40:18.772Z,13.27
2019-04-03T03:42:52.629Z,13.30
2019-04-03T03:45:24.222Z,13.29
2019-04-03T03:47:55.886Z,13.28
2019-04-03T03:50:27.983Z,13.27
2019-04-03T03:53:00.237Z,13.31
2019-04-03T03:55:31.922Z,13.32
2019-04-03T03:58:04.241Z,13.31
2019-04-03T04:00:35.965Z,13.31
2019-04-03T04:03:10.072Z,13.27
2019-04-03T04:05:41.136Z,13.23
2019-04-03T04:08:13.078Z,13.21
2019-04-03T04:10:45.155Z,13.15
2019-04-03T04:13:18.040Z,13.09
2019-04-03T04:15:49.769Z,13.10
2019-04-03T04:18:23.709Z,13.11
2019-04-03T04:20:54.949Z,13.11
2019-04-03T04:23:27.269Z,13.11
2019-04-03T04:25:59.016Z,13.09
2019-04-03T04:28:32.121Z,13.03
2019-04-03T04:31:03.902Z,13.03
2019-04-03T04:33:35.681Z,13.04
2019-04-03T04:36:07.355Z,13.02
2019-04-03T04:38:38.940Z,12.99
2019-04-03T04:41:10.551Z,12.98
2019-04-03T04:43:42.104Z,12.97
2019-04-03T04:46:14.065Z,12.98
2019-04-03T04:48:45.633Z,12.99
2019-04-03T04:51:17.211Z,12.99
2019-04-03T04:53:48.988Z,12.95
2019-04-03T04:56:21.045Z,12.86
2019-04-03T04:58:52.623Z,12.81
2019-04-03T05:01:24.270Z,12.82
2019-04-03T05:03:56.036Z,12.79
2019-04-03T05:06:29.604Z,12.77
2019-04-03T05:09:03.385Z,12.75
2019-04-03T05:11:34.303Z,12.73
2019-04-03T05:14:05.909Z,12.72
2019-04-03T05:16:37.492Z,12.68
2019-04-03T05:19:14.830Z,12.64
2019-04-03T05:21:42.397Z,12.61
2019-04-03T05:24:13.969Z,12.56
2019-04-03T05:26:45.641Z,12.54
2019-04-03T05:29:17.533Z,12.49
2019-04-03T05:31:49.061Z,12.51
2019-04-03T05:34:20.621Z,12.50
2019-04-03T05:36:52.173Z,12.37
2019-04-03T05:39:24.527Z,12.39
2019-04-03T05:41:58.508Z,12.41
2019-04-03T05:44:32.553Z,12.41
2019-04-03T05:47:02.893Z,12.46
2019-04-03T05:49:34.494Z,12.50
2019-04-03T05:52:06.074Z,12.49
2019-04-03T05:54:39.604Z,12.48
2019-04-03T05:57:11.891Z,12.53
2019-04-03T05:59:44.662Z,12.53
2019-04-03T06:02:20.030Z,12.58
2019-04-03T06:04:50.583Z,12.59
2019-04-03T06:07:22.192Z,12.59
2019-04-03T06:09:57.789Z,12.61
2019-04-03T06:12:27.047Z,12.61
2019-04-03T06:14:58.725Z,12.62
2019-04-03T06:17:30.320Z,12.60
2019-04-03T06:20:02.209Z,12.59
2019-04-03T06:22:33.749Z,12.61
2019-04-03T06:25:12.259Z,12.62
2019-04-03T06:27:43.022Z,12.60
2019-04-03T06:30:14.693Z,12.60
2019-04-03T06:32:46.256Z,12.63
2019-04-03T06:35:18.930Z,12.67
2019-04-03T06:37:52.508Z,12.71
2019-04-03T06:40:23.808Z,12.76
2019-04-03T06:42:55.385Z,12.80
2019-04-03T06:45:27.142Z,12.79
2019-04-03T06:47:58.725Z,12.87
2019-04-03T06:50:30.305Z,12.94
2019-04-03T06:53:01.854Z,12.95
2019-04-03T06:55:35.654Z,12.97
2019-04-03T06:58:06.807Z,13.04
2019-04-03T07:00:38.377Z,13.06
2019-04-03T07:03:09.981Z,13.17
2019-04-03T07:05:42.103Z,13.34
2019-04-03T07:08:13.710Z,13.55
2019-04-03T07:10:54.710Z,13.70
2019-04-03T07:13:20.478Z,13.78
2019-04-03T07:15:51.859Z,13.83
2019-04-03T07:18:23.755Z,13.80
2019-04-03T07:20:55.335Z,13.84
2019-04-03T07:23:29.947Z,13.77
2019-04-03T07:26:02.768Z,13.72
2019-04-03T07:28:34.479Z,13.79
2019-04-03T07:31:06.320Z,13.88
2019-04-03T07:33:37.953Z,13.94
2019-04-03T07:36:11.291Z,14.03
2019-04-03T07:38:42.833Z,14.10
2019-04-03T07:41:14.431Z,14.19
2019-04-03T07:43:45.998Z,14.26
2019-04-03T07:46:17.555Z,14.25
2019-04-03T07:48:49.344Z,14.30
2019-04-03T07:51:20.964Z,14.40
2019-04-03T07:53:53.693Z,14.39
2019-04-03T07:56:25.809Z,14.49
2019-04-03T07:58:58.415Z,14.74
2019-04-03T08:01:29.982Z,15.39
2019-04-03T08:04:01.625Z,15.50
2019-04-03T08:06:35.867Z,15.65
2019-04-03T08:09:10.358Z,15.67
2019-04-03T08:11:42.133Z,15.70
2019-04-03T08:14:13.765Z,15.76
2019-04-03T08:16:45.944Z,15.80
2019-04-03T08:19:18.627Z,15.90
2019-04-03T08:21:50.277Z,16.09
2019-04-03T08:24:21.879Z,16.13
2019-04-03T08:26:53.540Z,16.07
2019-04-03T08:29:25.104Z,16.03
2019-04-03T08:31:56.912Z,16.40
2019-04-03T08:34:30.886Z,16.57
2019-04-03T08:37:02.346Z,16.72
2019-04-03T08:39:34.114Z,16.74
2019-04-03T08:42:05.751Z,16.63
2019-04-03T08:44:37.705Z,16.53
2019-04-03T08:47:09.303Z,16.40
2019-04-03T08:49:40.959Z,16.28
2019-04-03T08:52:14.568Z,16.19
2019-04-03T08:54:46.023Z,16.16
2019-04-03T08:57:20.524Z,16.11
2019-04-03T08:59:52.483Z,16.10
2019-04-03T09:02:24.109Z,16.08
2019-04-03T09:04:56.813Z,16.03
2019-04-03T09:07:28.394Z,15.98
2019-04-03T09:10:00.885Z,15.91
2019-04-03T09:12:34.008Z,15.82
2019-04-03T09:15:06.583Z,15.77
2019-04-03T09:17:38.193Z,15.68
2019-04-03T09:20:12.886Z,15.63
2019-04-03T09:22:43.583Z,15.63
2019-04-03T09:25:15.417Z,15.57
2019-04-03T09:27:46.974Z,15.50
2019-04-03T09:30:20.153Z,15.48
2019-04-03T09:32:53.196Z,15.51
2019-04-03T09:35:25.434Z,15.55
2019-04-03T09:37:57.129Z,15.49
2019-04-03T09:40:29.764Z,15.47
2019-04-03T09:43:01.363Z,15.46
2019-04-03T09:45:33.369Z,15.40
2019-04-03T09:48:06.088Z,15.49
2019-04-03T09:50:37.878Z,15.55
2019-04-03T09:53:11.911Z,15.62
2019-04-03T09:55:43.522Z,15.59
2019-04-03T09:58:15.090Z,15.61
2019-04-03T10:00:46.734Z,15.86
2019-04-03T10:03:18.449Z,16.17
2019-04-03T10:05:50.001Z,16.42
2019-04-03T10:08:21.608Z,16.75
2019-04-03T10:10:53.476Z,16.80
2019-04-03T10:13:26.313Z,16.78
2019-04-03T10:15:58.272Z,17.01
2019-04-03T10:18:29.906Z,17.13
2019-04-03T10:21:01.494Z,17.12
2019-04-03T10:23:33.233Z,17.07
2019-04-03T10:26:07.606Z,17.06
2019-04-03T10:28:42.140Z,17.09
2019-04-03T10:31:12.755Z,17.33
2019-04-03T10:33:45.471Z,17.30
2019-04-03T10:36:18.137Z,17.35
2019-04-03T10:38:50.209Z,17.51
2019-04-03T10:41:21.765Z,17.59
2019-04-03T10:43:53.355Z,17.42
2019-04-03T10:46:24.922Z,17.30
2019-04-03T10:48:59.556Z,17.31
2019-04-03T10:51:31.703Z,17.34
2019-04-03T10:54:03.221Z,17.47
2019-04-03T10:56:35.073Z,17.57
2019-04-03T10:59:11.808Z,17.72
2019-04-03T11:01:40.319Z,17.74
2019-04-03T11:04:12.158Z,17.68
2019-04-03T11:06:44.828Z,17.74
2019-04-03T11:09:16.731Z,17.70
2019-04-03T11:11:48.571Z,18.04
2019-04-03T11:14:20.144Z,17.75
2019-04-03T11:16:51.705Z,17.48
2019-04-03T11:19:23.567Z,17.74
2019-04-03T11:21:56.445Z,18.16
2019-04-03T11:24:29.331Z,18.37
2019-04-03T11:27:01.316Z,18.48
2019-04-03T11:29:33.166Z,18.47
2019-04-03T11:32:05.663Z,18.59
2019-04-03T11:34:38.579Z,18.73
2019-04-03T11:37:10.136Z,18.91
2019-04-03T11:39:42.185Z,19.05
2019-04-03T11:42:23.226Z,19.02
2019-04-03T11:44:47.126Z,19.05
2019-04-03T11:47:18.990Z,19.08
2019-04-03T11:49:52.436Z,19.17
2019-04-03T11:52:23.967Z,19.26
2019-04-03T11:54:55.683Z,19.20
2019-04-03T11:57:27.689Z,19.16
2019-04-03T11:59:59.403Z,19.19
2019-04-03T12:02:30.990Z,19.09
2019-04-03T12:05:02.613Z,19.06
2019-04-03T12:07:34.187Z,18.95
2019-04-03T12:10:06.635Z,18.99
2019-04-03T12:12:38.469Z,18.69
2019-04-03T12:15:10.917Z,18.71
2019-04-03T12:17:42.575Z,18.69
2019-04-03T12:20:16.326Z,18.45
2019-04-03T12:22:48.158Z,18.30
2019-04-03T12:25:19.960Z,18.31
2019-04-03T12:27:51.555Z,18.48
2019-04-03T12:30:26.384Z,18.77
2019-04-03T12:32:57.937Z,18.88
2019-04-03T12:35:29.691Z,18.76
2019-04-03T12:38:01.410Z,18.74
2019-04-03T12:40:33.627Z,18.73
2019-04-03T12:43:05.423Z,18.73
2019-04-03T12:45:37.040Z,18.77
2019-04-03T12:48:08.935Z,18.74
2019-04-03T12:50:40.501Z,18.70
2019-04-03T12:53:15.764Z,18.55
2019-04-03T12:55:46.602Z,18.45
2019-04-03T12:58:18.210Z,18.45
2019-04-03T13:00:50.313Z,18.54
2019-04-03T13:03:23.871Z,18.39
2019-04-03T13:05:55.218Z,18.48
2019-04-03T13:08:27.269Z,18.61
2019-04-03T13:10:58.920Z,18.59
2019-04-03T13:13:30.628Z,18.56
2019-04-03T13:16:02.327Z,18.52
2019-04-03T13:18:34.452Z,18.40
2019-04-03T13:21:06.297Z,18.35
2019-04-03T13:23:39.922Z,18.18
2019-04-03T13:26:11.705Z,17.95
2019-04-03T13:28:43.594Z,17.72
2019-04-03T13:31:15.871Z,17.58
2019-04-03T13:33:47.852Z,17.77
2019-04-03T13:36:19.822Z,17.80
2019-04-03T13:38:51.826Z,17.75
2019-04-03T13:41:23.640Z,17.51
2019-04-03T13:43:55.274Z,17.49
2019-04-03T13:46:26.909Z,17.74
2019-04-03T13:48:58.546Z,17.73
2019-04-03T13:51:30.176Z,17.48
2019-04-03T13:54:01.751Z,17.36
2019-04-03T13:56:33.685Z,17.33
2019-04-03T13:59:05.919Z,17.25
2019-04-03T14:01:39.493Z,17.29
2019-04-03T14:04:10.849Z,17.36
2019-04-03T14:06:43.492Z,17.31
2019-04-03T14:09:17.219Z,17.16
2019-04-03T14:11:48.438Z,17.08
2019-04-03T14:14:20.101Z,17.12
2019-04-03T14:16:51.719Z,17.27
2019-04-03T14:19:25.132Z,17.27
2019-04-03T14:21:58.847Z,17.32
2019-04-03T14:24:39.294Z,17.34
2019-04-03T14:27:03.604Z,17.31
2019-04-03T14:29:37.127Z,17.33
2019-04-03T14:32:09.179Z,17.38
2019-04-03T14:34:40.836Z,17.22
2019-04-03T14:37:12.464Z,17.18
2019-04-03T14:39:44.104Z,17.28
2019-04-03T14:42:15.711Z,17.17
2019-04-03T14:44:47.336Z,17.08
2019-04-03T14:47:21.760Z,16.99
2019-04-03T14:49:52.273Z,16.89
2019-04-03T14:52:24.023Z,16.77
2019-04-03T14:54:56.769Z,16.69
2019-04-03T14:57:29.046Z,16.55
2019-04-03T15:00:03.102Z,16.42
2019-04-03T15:02:34.828Z,16.30
2019-04-03T15:05:08.732Z,16.14
2019-04-03T15:07:40.637Z,16.09
2019-04-03T15:10:12.890Z,15.93
2019-04-03T15:12:44.574Z,15.77
2019-04-03T15:15:16.268Z,15.72
2019-04-03T15:17:47.838Z,15.68
2019-04-03T15:20:19.944Z,15.56
2019-04-03T15:22:51.713Z,15.40
2019-04-03T15:25:23.835Z,15.16
2019-04-03T15:27:55.524Z,14.97
2019-04-03T15:30:27.172Z,14.82
2019-04-03T15:32:59.228Z,14.79
2019-04-03T15:35:32.163Z,14.59
2019-04-03T15:38:04.209Z,14.45
2019-04-03T15:40:36.257Z,14.20
2019-04-03T15:43:10.397Z,14.00
2019-04-03T15:45:41.164Z,13.94
2019-04-03T15:48:12.779Z,13.87
2019-04-03T15:50:44.494Z,13.71
2019-04-03T15:53:16.083Z,13.33
2019-04-03T15:55:48.028Z,13.21
2019-04-03T15:58:19.657Z,13.02
2019-04-03T16:00:51.486Z,12.95
2019-04-03T16:03:23.111Z,12.82
2019-04-03T16:05:54.726Z,12.70
2019-04-03T16:08:26.521Z,12.67
2019-04-03T16:10:58.880Z,12.62
2019-04-03T16:13:30.679Z,12.50
2019-04-03T16:16:03.839Z,12.14
2019-04-03T16:18:36.204Z,11.85
2019-04-03T16:21:08.936Z,11.57
2019-04-03T16:23:40.961Z,11.57
2019-04-03T16:26:12.608Z,11.48
2019-04-03T16:28:44.257Z,11.45
2019-04-03T16:31:16.037Z,11.25
2019-04-03T16:33:47.866Z,11.06
2019-04-03T16:36:19.817Z,10.85
2019-04-03T16:38:51.690Z,10.77
2019-04-03T16:41:23.417Z,10.49
2019-04-03T16:43:55.268Z,10.47
2019-04-03T16:46:26.937Z,10.40
2019-04-03T16:48:58.802Z,9.91
2019-04-03T16:51:31.724Z,9.82
2019-04-03T16:54:03.681Z,9.77
2019-04-03T16:56:38.136Z,9.58
2019-04-03T16:59:08.667Z,9.44
2019-04-03T17:01:40.238Z,9.37
2019-04-03T17:04:23.831Z,9.40
2019-04-03T17:06:47.582Z,9.33
2019-04-03T17:09:18.973Z,9.39
2019-04-03T17:11:51.157Z,9.33
2019-04-03T17:14:24.422Z,9.35
2019-04-03T17:16:56.216Z,9.13
2019-04-03T17:19:28.261Z,9.00
2019-04-03T17:21:59.830Z,9.03
2019-04-03T17:24:40.832Z,8.97
2019-04-03T17:27:04.731Z,8.93
2019-04-03T17:29:36.330Z,8.91
2019-04-03T17:32:08.995Z,8.89
2019-04-03T17:34:43.887Z,8.86
2019-04-03T17:37:18.650Z,8.87
2019-04-03T17:39:49.006Z,8.88
2019-04-03T17:42:20.648Z,8.79
2019-04-03T17:44:52.240Z,8.75
2019-04-03T17:47:23.847Z,8.77
2019-04-03T17:49:55.512Z,8.80
2019-04-03T17:52:27.094Z,8.88
2019-04-03T17:54:58.763Z,8.86
2019-04-03T17:57:30.355Z,8.79
2019-04-03T18:00:03.374Z,8.76
2019-04-03T18:02:37.149Z,8.63
2019-04-03T18:05:10.087Z,8.72
2019-04-03T18:07:41.736Z,8.80
2019-04-03T18:10:15.995Z,8.84
2019-04-03T18:12:47.650Z,8.88
2019-04-03T18:15:20.919Z,8.88
2019-04-03T18:17:52.537Z,8.90
2019-04-03T18:20:24.115Z,8.92
2019-04-03T18:22:55.735Z,8.98
2019-04-03T18:25:28.888Z,8.95
2019-04-03T18:28:00.667Z,8.91
2019-04-03T18:30:32.258Z,8.93
2019-04-03T18:33:05.775Z,8.89
2019-04-03T18:35:37.212Z,8.92
2019-04-03T18:38:08.784Z,8.93
2019-04-03T18:40:40.411Z,8.93
2019-04-03T18:43:12.020Z,8.89
2019-04-03T18:45:43.649Z,8.92
2019-04-03T18:48:16.596Z,8.93
2019-04-03T18:50:48.729Z,8.96
2019-04-03T18:53:20.298Z,8.99
2019-04-03T18:55:51.892Z,9.02
2019-04-03T18:58:23.821Z,9.02
2019-04-03T19:00:56.013Z,9.05
2019-04-03T19:03:27.660Z,9.03
2019-04-03T19:05:59.979Z,9.03
2019-04-03T19:08:31.743Z,9.04
2019-04-03T19:11:09.351Z,9.03
2019-04-03T19:13:37.079Z,9.16
2019-04-03T19:16:09.070Z,9.14
2019-04-03T19:18:40.797Z,9.21
2019-04-03T19:21:24.090Z,9.31
2019-04-03T19:23:49.846Z,9.35
2019-04-03T19:26:19.067Z,9.27
2019-04-03T19:28:50.638Z,9.29
2019-04-03T19:31:22.266Z,9.24
2019-04-03T19:33:53.915Z,9.21
2019-04-03T19:36:29.652Z,9.21
2019-04-03T19:38:59.939Z,9.24
2019-04-03T19:41:31.565Z,9.27
2019-04-03T19:44:03.165Z,9.32
2019-04-03T19:46:34.811Z,9.25
2019-04-03T19:49:06.703Z,9.21
2019-04-03T19:51:38.317Z,9.20
2019-04-03T19:54:11.682Z,9.23
2019-04-03T19:56:44.369Z,9.22
2019-04-03T19:59:17.507Z,9.22
2019-04-03T20:01:49.181Z,9.18
2019-04-03T20:04:20.819Z,9.19
2019-04-03T20:06:52.922Z,9.19
2019-04-03T20:09:25.764Z,9.17
2019-04-03T20:11:59.092Z,9.22
2019-04-03T20:14:30.697Z,9.21
2019-04-03T20:17:02.263Z,9.22
2019-04-03T20:19:33.975Z,9.26
2019-04-03T20:22:07.085Z,9.22
2019-04-03T20:24:38.965Z,9.24
2019-04-03T20:27:12.365Z,9.25
2019-04-03T20:29:44.005Z,9.26
2019-04-03T20:32:15.619Z,9.26
2019-04-03T20:34:47.223Z,9.26
2019-04-03T20:37:18.867Z,9.24
2019-04-03T20:39:50.718Z,9.27
2019-04-03T20:42:22.346Z,9.27
2019-04-03T20:44:53.965Z,9.26
2019-04-03T20:47:26.888Z,9.27
2019-04-03T20:49:58.883Z,9.26
2019-04-03T20:52:31.514Z,9.37
2019-04-03T20:55:03.130Z,9.26
2019-04-03T20:57:34.743Z,9.25
2019-04-03T21:00:11.846Z,9.29
2019-04-03T21:02:43.809Z,9.29
2019-04-03T21:05:17.833Z,9.26
2019-04-03T21:07:48.968Z,9.25
2019-04-03T21:10:20.610Z,9.18
2019-04-03T21:12:52.190Z,9.17
2019-04-03T21:15:23.771Z,9.22
2019-04-03T21:17:55.376Z,9.24
2019-04-03T21:20:26.994Z,9.14
2019-04-03T21:22:58.593Z,9.13
2019-04-03T21:25:31.278Z,9.13
2019-04-03T21:28:02.851Z,9.00
2019-04-03T21:30:34.526Z,8.95
2019-04-03T21:33:06.131Z,8.89
2019-04-03T21:35:37.778Z,8.88
2019-04-03T21:38:10.847Z,8.81
2019-04-03T21:40:42.626Z,8.74
2019-04-03T21:43:14.199Z,8.75
2019-04-03T21:45:45.756Z,8.78
2019-04-03T21:48:17.373Z,8.74
2019-04-03T21:50:49.777Z,8.69
2019-04-03T21:53:24.195Z,8.71
2019-04-03T21:55:55.257Z,8.72
2019-04-03T21:58:26.854Z,8.64
2019-04-03T22:01:23.486Z,8.64
2019-04-03T22:03:55.076Z,8.66
2019-04-03T22:06:27.711Z,8.66
2019-04-03T22:09:00.582Z,8.63
2019-04-03T22:11:35.564Z,8.64
2019-04-03T22:14:10.687Z,8.74
2019-04-03T22:16:40.930Z,8.63
2019-04-03T22:19:12.546Z,8.59
2019-04-03T22:21:44.118Z,8.57
2019-04-03T22:24:15.708Z,8.58
2019-04-03T22:26:47.289Z,8.60
2019-04-03T22:29:20.458Z,8.49
2019-04-03T22:31:54.430Z,8.51
2019-04-03T22:34:25.505Z,8.50
2019-04-03T22:36:57.068Z,8.49
2019-04-03T22:39:28.685Z,8.46
2019-04-03T22:42:00.268Z,8.48
2019-04-03T22:44:31.866Z,8.48
2019-04-03T22:47:03.411Z,8.49
2019-04-03T22:49:35.051Z,8.57
2019-04-03T22:52:06.876Z,8.54
2019-04-03T22:54:39.907Z,8.56
2019-04-03T22:57:11.514Z,8.56
2019-04-03T22:59:44.134Z,8.53
2019-04-03T23:02:15.654Z,8.46
2019-04-03T23:04:47.213Z,8.46
2019-04-03T23:07:20.838Z,8.48
2019-04-03T23:09:52.114Z,8.46
2019-04-03T23:12:23.688Z,8.45
2019-04-03T23:14:55.263Z,8.44
2019-04-03T23:17:26.788Z,8.46
2019-04-03T23:19:58.418Z,8.46
2019-04-03T23:22:29.963Z,8.47
2019-04-03T23:25:01.550Z,8.44
2019-04-03T23:27:33.525Z,8.46
2019-04-03T23:30:05.452Z,8.48
2019-04-03T23:32:37.042Z,8.45
2019-04-03T23:35:08.723Z,8.42
2019-04-03T23:37:40.309Z,8.36
2019-04-03T23:40:12.371Z,8.32
2019-04-03T23:42:43.936Z,8.29
2019-04-03T23:45:16.644Z,8.26
2019-04-03T23:47:48.228Z,8.23
2019-04-03T23:50:21.650Z,8.20
2019-04-03T23:52:53.164Z,8.21
2019-04-03T23:55:24.721Z,8.19
2019-04-03T23:57:56.296Z,8.23
